WZZ411 LZIB-LZKZ
Flight info
| Callsign | WZZ411 |
|---|---|
| Flight time | 0h 32m |
| Altitude | 21000 |
| Route | NIT N190 TAKOS |
| Aircraft | A321/M-SDE1E2E3FGIJ1J4RWXY/LB1 |
Departure
| Time | 2026-04-24 21:17 |
|---|---|
| Airport | M. R. Štefánik Airport (LZIB) |
Arrival
| Time | 2026-04-24 21:49 |
|---|---|
| Airport | Košice International Airport (LZKZ) |
| Time | Latitude | Longitude | Altitude | Speed | Heading |
|---|---|---|---|---|---|
| 2026-04-24 20:54 | 48.17046 | 17.20274 | 429 ft | 0 kts | 319° |
| 2026-04-24 21:02 | 48.17045 | 17.20274 | 444 ft | 0 kts | 319° |
| 2026-04-24 21:11 | 48.17063 | 17.20283 | 410 ft | 7 kts | 43° |
| 2026-04-24 21:11 | 48.17089 | 17.20340 | 438 ft | 6 kts | 59° |
| 2026-04-24 21:11 | 48.17111 | 17.20400 | 444 ft | 7 kts | 62° |
| 2026-04-24 21:11 | 48.17137 | 17.20476 | 432 ft | 9 kts | 63° |
| 2026-04-24 21:12 | 48.17166 | 17.20571 | 435 ft | 11 kts | 72° |
| 2026-04-24 21:12 | 48.17160 | 17.20654 | 444 ft | 13 kts | 115° |
| 2026-04-24 21:12 | 48.17067 | 17.20798 | 435 ft | 16 kts | 136° |
| 2026-04-24 21:12 | 48.16988 | 17.20929 | 429 ft | 18 kts | 131° |
| 2026-04-24 21:13 | 48.16897 | 17.21076 | 431 ft | 21 kts | 134° |
| 2026-04-24 21:13 | 48.16797 | 17.21233 | 443 ft | 21 kts | 134° |
| 2026-04-24 21:13 | 48.16691 | 17.21399 | 443 ft | 23 kts | 134° |
| 2026-04-24 21:13 | 48.16575 | 17.21576 | 437 ft | 25 kts | 134° |
| 2026-04-24 21:14 | 48.16458 | 17.21760 | 431 ft | 24 kts | 134° |
| 2026-04-24 21:14 | 48.16336 | 17.21948 | 429 ft | 26 kts | 134° |
| 2026-04-24 21:14 | 48.16209 | 17.22146 | 429 ft | 26 kts | 134° |
| 2026-04-24 21:14 | 48.16081 | 17.22343 | 436 ft | 27 kts | 134° |
| 2026-04-24 21:15 | 48.15949 | 17.22548 | 429 ft | 27 kts | 134° |
| 2026-04-24 21:15 | 48.15853 | 17.22696 | 427 ft | 19 kts | 134° |
| 2026-04-24 21:15 | 48.15756 | 17.22847 | 428 ft | 19 kts | 133° |
| 2026-04-24 21:15 | 48.15695 | 17.23002 | 437 ft | 15 kts | 107° |
| 2026-04-24 21:16 | 48.15684 | 17.23136 | 436 ft | 7 kts | 76° |
| 2026-04-24 21:16 | 48.15724 | 17.23190 | 437 ft | 12 kts | 15° |
| 2026-04-24 21:16 | 48.15901 | 17.22999 | 431 ft | 66 kts | 313° |
| 2026-04-24 21:16 | 48.16389 | 17.22237 | 438 ft | 136 kts | 314° |
| 2026-04-24 21:17 | 48.17150 | 17.21045 | 700 ft | 165 kts | 314° |
| 2026-04-24 21:17 | 48.18020 | 17.19961 | 1534 ft | 163 kts | 332° |
| 2026-04-24 21:17 | 48.19108 | 17.19403 | 2124 ft | 173 kts | 352° |
| 2026-04-24 21:17 | 48.19940 | 17.19400 | 2313 ft | 189 kts | 7° |
| 2026-04-24 21:18 | 48.21572 | 17.20577 | 2938 ft | 207 kts | 40° |
| 2026-04-24 21:18 | 48.22450 | 17.22337 | 3553 ft | 213 kts | 52° |
| 2026-04-24 21:18 | 48.23206 | 17.24290 | 4128 ft | 219 kts | 56° |
| 2026-04-24 21:18 | 48.23936 | 17.26336 | 4696 ft | 224 kts | 56° |
| 2026-04-24 21:19 | 48.24699 | 17.28406 | 5247 ft | 229 kts | 54° |
| 2026-04-24 21:19 | 48.25493 | 17.30465 | 5801 ft | 232 kts | 53° |
| 2026-04-24 21:19 | 48.26128 | 17.32799 | 6106 ft | 258 kts | 74° |
| 2026-04-24 21:19 | 48.26243 | 17.35621 | 6453 ft | 277 kts | 85° |
| 2026-04-24 21:20 | 48.26456 | 17.41588 | 7636 ft | 296 kts | 82° |
| 2026-04-24 21:20 | 48.26600 | 17.44691 | 8504 ft | 298 kts | 82° |
| 2026-04-24 21:20 | 48.26746 | 17.47810 | 9386 ft | 300 kts | 83° |
| 2026-04-24 21:21 | 48.26889 | 17.50959 | 10230 ft | 303 kts | 83° |
| 2026-04-24 21:21 | 48.27037 | 17.54216 | 10561 ft | 325 kts | 83° |
| 2026-04-24 21:21 | 48.27194 | 17.57715 | 10869 ft | 344 kts | 83° |
| 2026-04-24 21:21 | 48.27352 | 17.61344 | 11493 ft | 351 kts | 83° |
| 2026-04-24 21:22 | 48.27502 | 17.64971 | 12219 ft | 355 kts | 83° |
| 2026-04-24 21:22 | 48.27653 | 17.68684 | 12935 ft | 359 kts | 83° |
| 2026-04-24 21:22 | 48.27804 | 17.72454 | 13670 ft | 362 kts | 83° |
| 2026-04-24 21:22 | 48.27907 | 17.75011 | 14111 ft | 365 kts | 83° |
| 2026-04-24 21:23 | 48.28110 | 17.80093 | 14941 ft | 370 kts | 83° |
| 2026-04-24 21:23 | 48.28264 | 17.83988 | 15558 ft | 376 kts | 83° |
| 2026-04-24 21:23 | 48.28426 | 17.88003 | 15721 ft | 395 kts | 83° |
| 2026-04-24 21:23 | 48.28598 | 17.92174 | 15848 ft | 414 kts | 83° |
| 2026-04-24 21:24 | 48.28778 | 17.96572 | 16111 ft | 428 kts | 83° |
| 2026-04-24 21:24 | 48.28953 | 18.01090 | 16631 ft | 434 kts | 83° |
| 2026-04-24 21:24 | 48.29217 | 18.05626 | 17191 ft | 435 kts | 77° |
| 2026-04-24 21:24 | 48.29862 | 18.10031 | 17738 ft | 437 kts | 73° |
| 2026-04-24 21:25 | 48.30558 | 18.14495 | 18308 ft | 441 kts | 73° |
| 2026-04-24 21:25 | 48.31264 | 18.19000 | 18778 ft | 445 kts | 73° |
| 2026-04-24 21:25 | 48.31976 | 18.23534 | 19268 ft | 448 kts | 73° |
| 2026-04-24 21:25 | 48.32695 | 18.28118 | 19733 ft | 451 kts | 73° |
| 2026-04-24 21:26 | 48.33416 | 18.32732 | 20225 ft | 454 kts | 73° |
| 2026-04-24 21:26 | 48.34134 | 18.37338 | 20700 ft | 457 kts | 73° |
| 2026-04-24 21:26 | 48.34857 | 18.42010 | 20963 ft | 459 kts | 73° |
| 2026-04-24 21:26 | 48.35575 | 18.46689 | 21023 ft | 460 kts | 73° |
| 2026-04-24 21:27 | 48.36293 | 18.51393 | 21027 ft | 459 kts | 73° |
| 2026-04-24 21:27 | 48.37007 | 18.56083 | 21027 ft | 459 kts | 73° |
| 2026-04-24 21:27 | 48.37719 | 18.60765 | 21026 ft | 459 kts | 73° |
| 2026-04-24 21:27 | 48.38191 | 18.63863 | 21028 ft | 459 kts | 73° |
| 2026-04-24 21:28 | 48.39148 | 18.70137 | 21026 ft | 459 kts | 73° |
| 2026-04-24 21:28 | 48.39853 | 18.74781 | 21028 ft | 459 kts | 73° |
| 2026-04-24 21:28 | 48.40564 | 18.79485 | 21029 ft | 459 kts | 73° |
| 2026-04-24 21:28 | 48.41270 | 18.84183 | 21041 ft | 459 kts | 73° |
| 2026-04-24 21:29 | 48.41965 | 18.88826 | 21052 ft | 460 kts | 73° |
| 2026-04-24 21:29 | 48.42671 | 18.93547 | 21039 ft | 460 kts | 73° |
| 2026-04-24 21:29 | 48.43374 | 18.98255 | 21033 ft | 460 kts | 73° |
| 2026-04-24 21:29 | 48.44072 | 19.02958 | 21030 ft | 461 kts | 73° |
| 2026-04-24 21:30 | 48.44770 | 19.07675 | 21026 ft | 461 kts | 73° |
| 2026-04-24 21:30 | 48.45460 | 19.12353 | 21027 ft | 461 kts | 74° |
| 2026-04-24 21:30 | 48.45889 | 19.15515 | 21026 ft | 461 kts | 75° |
| 2026-04-24 21:30 | 48.46655 | 19.21846 | 21024 ft | 462 kts | 77° |
| 2026-04-24 21:31 | 48.47187 | 19.26642 | 21027 ft | 463 kts | 77° |
| 2026-04-24 21:31 | 48.47532 | 19.29826 | 21028 ft | 463 kts | 77° |
| 2026-04-24 21:31 | 48.48049 | 19.34618 | 21026 ft | 463 kts | 77° |
| 2026-04-24 21:31 | 48.48577 | 19.39416 | 21029 ft | 462 kts | 77° |
| 2026-04-24 21:32 | 48.49111 | 19.44148 | 21027 ft | 462 kts | 76° |
| 2026-04-24 21:32 | 48.49662 | 19.48944 | 21025 ft | 462 kts | 77° |
| 2026-04-24 21:32 | 48.50216 | 19.53735 | 21024 ft | 462 kts | 76° |
| 2026-04-24 21:32 | 48.50766 | 19.58521 | 21038 ft | 462 kts | 76° |
| 2026-04-24 21:33 | 48.51310 | 19.63309 | 21031 ft | 463 kts | 76° |
| 2026-04-24 21:33 | 48.51846 | 19.68059 | 21023 ft | 462 kts | 77° |
| 2026-04-24 21:33 | 48.52369 | 19.72748 | 20857 ft | 445 kts | 76° |
| 2026-04-24 21:33 | 48.52867 | 19.77266 | 20667 ft | 429 kts | 76° |
| 2026-04-24 21:34 | 48.53347 | 19.81619 | 20539 ft | 413 kts | 76° |
| 2026-04-24 21:34 | 48.53813 | 19.85842 | 20368 ft | 401 kts | 76° |
| 2026-04-24 21:34 | 48.54266 | 19.89920 | 20004 ft | 393 kts | 76° |
| 2026-04-24 21:34 | 48.54711 | 19.93942 | 19062 ft | 384 kts | 76° |
| 2026-04-24 21:35 | 48.55155 | 19.97943 | 18374 ft | 386 kts | 76° |
| 2026-04-24 21:35 | 48.55596 | 20.01930 | 17897 ft | 380 kts | 76° |
| 2026-04-24 21:35 | 48.56027 | 20.05848 | 17142 ft | 373 kts | 76° |
| 2026-04-24 21:35 | 48.56438 | 20.09615 | 16687 ft | 357 kts | 76° |
| 2026-04-24 21:36 | 48.56838 | 20.13299 | 16256 ft | 355 kts | 76° |
| 2026-04-24 21:36 | 48.57235 | 20.16964 | 15822 ft | 352 kts | 76° |
| 2026-04-24 21:36 | 48.57625 | 20.20606 | 15389 ft | 350 kts | 76° |
| 2026-04-24 21:36 | 48.58009 | 20.24224 | 14962 ft | 348 kts | 77° |
| 2026-04-24 21:37 | 48.58122 | 20.27841 | 14557 ft | 350 kts | 90° |
| 2026-04-24 21:37 | 48.57809 | 20.31494 | 14141 ft | 350 kts | 95° |
| 2026-04-24 21:37 | 48.57442 | 20.35123 | 13726 ft | 349 kts | 96° |
| 2026-04-24 21:37 | 48.57071 | 20.38748 | 13273 ft | 346 kts | 96° |
| 2026-04-24 21:38 | 48.56706 | 20.42331 | 12860 ft | 343 kts | 96° |
| 2026-04-24 21:38 | 48.56351 | 20.45826 | 12463 ft | 339 kts | 96° |
| 2026-04-24 21:38 | 48.55996 | 20.49331 | 12058 ft | 336 kts | 96° |
| 2026-04-24 21:38 | 48.55639 | 20.52808 | 11657 ft | 333 kts | 96° |
| 2026-04-24 21:39 | 48.55283 | 20.56253 | 11273 ft | 331 kts | 96° |
| 2026-04-24 21:39 | 48.54929 | 20.59676 | 10866 ft | 328 kts | 97° |
| 2026-04-24 21:39 | 48.54576 | 20.63075 | 10478 ft | 326 kts | 97° |
| 2026-04-24 21:39 | 48.54233 | 20.66401 | 10122 ft | 322 kts | 96° |
| 2026-04-24 21:40 | 48.53892 | 20.69685 | 9995 ft | 311 kts | 97° |
| 2026-04-24 21:40 | 48.53561 | 20.72878 | 9703 ft | 306 kts | 97° |
| 2026-04-24 21:40 | 48.53232 | 20.76075 | 9167 ft | 302 kts | 97° |
| 2026-04-24 21:40 | 48.52913 | 20.79145 | 8496 ft | 295 kts | 97° |
| 2026-04-24 21:41 | 48.52597 | 20.82166 | 7977 ft | 285 kts | 98° |
| 2026-04-24 21:41 | 48.52292 | 20.85062 | 7501 ft | 274 kts | 98° |
| 2026-04-24 21:41 | 48.51998 | 20.87837 | 7049 ft | 263 kts | 98° |
| 2026-04-24 21:41 | 48.51714 | 20.90526 | 6603 ft | 254 kts | 98° |
| 2026-04-24 21:42 | 48.51443 | 20.93091 | 6176 ft | 250 kts | 98° |
| 2026-04-24 21:42 | 48.51166 | 20.95700 | 5731 ft | 254 kts | 98° |
| 2026-04-24 21:42 | 48.50888 | 20.98328 | 5285 ft | 250 kts | 97° |
| 2026-04-24 21:42 | 48.50617 | 21.00878 | 4916 ft | 244 kts | 97° |
| 2026-04-24 21:43 | 48.50346 | 21.03400 | 4534 ft | 241 kts | 98° |
| 2026-04-24 21:43 | 48.50020 | 21.05797 | 4460 ft | 225 kts | 100° |
| 2026-04-24 21:43 | 48.49676 | 21.08034 | 4403 ft | 214 kts | 101° |
| 2026-04-24 21:43 | 48.49336 | 21.10186 | 4330 ft | 213 kts | 101° |
| 2026-04-24 21:44 | 48.49025 | 21.12370 | 4188 ft | 212 kts | 94° |
| 2026-04-24 21:44 | 48.49111 | 21.14507 | 3960 ft | 195 kts | 74° |
| 2026-04-24 21:44 | 48.49599 | 21.16311 | 3817 ft | 177 kts | 56° |
| 2026-04-24 21:44 | 48.50324 | 21.17669 | 3666 ft | 161 kts | 41° |
| 2026-04-24 21:45 | 48.51208 | 21.18630 | 3511 ft | 154 kts | 26° |
| 2026-04-24 21:45 | 48.52192 | 21.19199 | 3343 ft | 150 kts | 13° |
| 2026-04-24 21:45 | 48.53208 | 21.19550 | 3153 ft | 150 kts | 13° |
| 2026-04-24 21:45 | 48.54222 | 21.19903 | 2954 ft | 149 kts | 13° |
| 2026-04-24 21:46 | 48.55221 | 21.20251 | 2785 ft | 143 kts | 13° |
| 2026-04-24 21:46 | 48.56175 | 21.20583 | 2565 ft | 139 kts | 13° |
| 2026-04-24 21:46 | 48.57115 | 21.20910 | 2382 ft | 138 kts | 14° |
| 2026-04-24 21:46 | 48.58054 | 21.21237 | 2190 ft | 138 kts | 14° |
| 2026-04-24 21:47 | 48.58995 | 21.21565 | 2008 ft | 139 kts | 14° |
| 2026-04-24 21:47 | 48.59937 | 21.21893 | 1818 ft | 139 kts | 14° |
| 2026-04-24 21:47 | 48.60871 | 21.22219 | 1631 ft | 140 kts | 13° |
| 2026-04-24 21:47 | 48.61816 | 21.22548 | 1433 ft | 139 kts | 13° |
| 2026-04-24 21:48 | 48.62755 | 21.22889 | 1221 ft | 138 kts | 13° |
| 2026-04-24 21:48 | 48.63692 | 21.23220 | 1020 ft | 137 kts | 11° |
| 2026-04-24 21:48 | 48.64630 | 21.23518 | 873 ft | 138 kts | 14° |
| 2026-04-24 21:48 | 48.65551 | 21.23854 | 752 ft | 127 kts | 13° |
| 2026-04-24 21:49 | 48.66251 | 21.24097 | 755 ft | 79 kts | 12° |
| 2026-04-24 21:49 | 48.66679 | 21.24245 | 764 ft | 43 kts | 13° |
| 2026-04-24 21:49 | 48.66883 | 21.24320 | 766 ft | 28 kts | 13° |
| 2026-04-24 21:49 | 48.67073 | 21.24384 | 765 ft | 29 kts | 12° |
| 2026-04-24 21:50 | 48.67202 | 21.24418 | 763 ft | 11 kts | 351° |
| 2026-04-24 21:50 | 48.67247 | 21.24331 | 761 ft | 13 kts | 289° |
| 2026-04-24 21:50 | 48.67267 | 21.24216 | 762 ft | 6 kts | 281° |
| 2026-04-24 21:50 | 48.67270 | 21.24188 | 763 ft | 3 kts | 279° |
| 2026-04-24 21:51 | 48.67274 | 21.24152 | 763 ft | 4 kts | 277° |
| 2026-04-24 21:51 | 48.67276 | 21.24102 | 763 ft | 5 kts | 274° |
| 2026-04-24 21:51 | 48.67271 | 21.24041 | 764 ft | 6 kts | 246° |
| 2026-04-24 21:51 | 48.67240 | 21.23987 | 764 ft | 7 kts | 225° |
| 2026-04-24 21:52 | 48.67218 | 21.23944 | 765 ft | 0 kts | 235° |
| 2026-04-24 21:52 | 48.67214 | 21.23933 | 765 ft | 2 kts | 239° |
| 2026-04-24 21:52 | 48.67209 | 21.23883 | 766 ft | 5 kts | 278° |
| 2026-04-24 21:52 | 48.67225 | 21.23844 | 766 ft | 5 kts | 311° |
| 2026-04-24 21:53 | 48.67274 | 21.23822 | 766 ft | 9 kts | 5° |
| 2026-04-24 21:53 | 48.67280 | 21.23823 | 766 ft | 0 kts | 8° |